Time;durP1;ratioP1;P1;durP2;ratioP2;P2;SDS_P1;SDS_P2;PMS_P1;PMS_P2;Temp;Humidity;BMP_temperature;BMP_pressure;BME280_temperature;BME280_humidity;BME280_pressure;Samples;Min_cycle;Max_cycle;Signal;HPM_P1;HPM_P2
2023/09/09 00:00:51;;;;;;;1.00;0.60;;;;;;;12.66;100.00;100380.52;104460;1256;72902;-51
2023/09/09 00:03:19;;;;;;;5.20;0.60;;;;;;;12.66;100.00;100379.61;104520;1259;60386;-51
2023/09/09 00:05:47;;;;;;;1.00;0.60;;;;;;;12.66;100.00;100380.83;104637;1257;59669;-51
2023/09/09 00:08:16;;;;;;;1.50;0.60;;;;;;;12.67;100.00;100375.73;104655;1262;75363;-50
2023/09/09 00:10:43;;;;;;;2.30;0.70;;;;;;;12.68;100.00;100377.13;104439;1257;66816;-51
2023/09/09 00:13:11;;;;;;;2.10;0.90;;;;;;;12.70;100.00;100375.98;104532;1256;73175;-52
2023/09/09 00:15:38;;;;;;;2.40;0.70;;;;;;;12.69;100.00;100377.09;104487;1257;60451;-51
2023/09/09 00:18:05;;;;;;;3.90;1.00;;;;;;;12.69;100.00;100379.60;104518;1263;60967;-51
2023/09/09 00:20:35;;;;;;;2.20;0.70;;;;;;;12.69;100.00;100384.12;104343;1257;73844;-53
2023/09/09 00:23:08;;;;;;;2.00;0.60;;;;;;;12.66;100.00;100384.26;104629;1262;66768;-52
2023/09/09 00:25:40;;;;;;;4.10;0.80;;;;;;;12.66;100.00;100378.70;104384;1261;71423;-51
2023/09/09 00:28:09;;;;;;;2.70;0.90;;;;;;;12.66;100.00;100378.52;104487;1259;62181;-50
2023/09/09 00:30:37;;;;;;;1.80;0.70;;;;;;;12.66;100.00;100378.33;104580;1261;60445;-52
2023/09/09 00:33:07;;;;;;;2.30;0.60;;;;;;;12.66;100.00;100377.06;104639;1256;73134;-52
2023/09/09 00:35:38;;;;;;;2.40;0.60;;;;;;;12.65;100.00;100374.77;104792;1257;66781;-52
2023/09/09 00:38:07;;;;;;;1.10;0.60;;;;;;;12.62;100.00;100373.30;105154;1261;72646;-52
2023/09/09 00:40:35;;;;;;;0.90;0.60;;;;;;;12.59;100.00;100370.92;104746;1261;61733;-51
2023/09/09 00:43:03;;;;;;;1.30;0.60;;;;;;;12.57;100.00;100371.53;104545;1256;60548;-52
2023/09/09 00:45:30;;;;;;;3.40;0.60;;;;;;;12.56;100.00;100371.76;104774;1255;73027;-53
2023/09/09 00:47:58;;;;;;;1.40;0.70;;;;;;;12.54;100.00;100372.02;104588;1255;65674;-53
2023/09/09 00:50:26;;;;;;;2.30;0.60;;;;;;;12.53;100.00;100369.21;105138;1258;72656;-52
2023/09/09 00:52:53;;;;;;;1.30;0.60;;;;;;;12.52;100.00;100363.66;104792;1256;60495;-52
2023/09/09 00:55:23;;;;;;;3.00;0.70;;;;;;;12.52;100.00;100361.33;104775;1255;60654;-52
2023/09/09 00:57:51;;;;;;;1.20;0.70;;;;;;;12.52;100.00;100360.08;104761;1256;74910;-51
2023/09/09 01:00:18;;;;;;;1.90;0.70;;;;;;;12.49;100.00;100357.68;104678;1260;65837;-53
2023/09/09 01:02:45;;;;;;;1.00;0.70;;;;;;;12.46;100.00;100359.08;104945;1259;72573;-51
2023/09/09 01:05:13;;;;;;;1.50;0.70;;;;;;;12.42;100.00;100355.31;104823;1262;60569;-53
2023/09/09 01:07:49;;;;;;;0.90;0.60;;;;;;;12.36;100.00;100349.27;105108;1256;60458;-52
2023/09/09 01:10:18;;;;;;;3.60;0.80;;;;;;;12.34;100.00;100350.11;104682;1262;74332;-53
2023/09/09 01:12:45;;;;;;;1.60;0.50;;;;;;;12.33;100.00;100349.07;105003;1262;66752;-48
2023/09/09 01:15:12;;;;;;;0.80;0.60;;;;;;;12.32;100.00;100350.58;104774;1257;71285;-52
2023/09/09 01:17:40;;;;;;;1.70;0.50;;;;;;;12.32;100.00;100350.91;105023;1256;62251;-50
2023/09/09 01:20:14;;;;;;;0.80;0.50;;;;;;;12.30;100.00;100355.17;104673;1261;60573;-49
2023/09/09 01:22:43;;;;;;;0.90;0.60;;;;;;;12.29;100.00;100356.27;104643;1262;73767;-52
2023/09/09 01:25:11;;;;;;;0.80;0.60;;;;;;;12.29;100.00;100355.21;105655;1259;65686;-49
2023/09/09 01:27:39;;;;;;;1.90;0.70;;;;;;;12.27;100.00;100360.52;104482;1256;72670;-49
2023/09/09 01:30:08;;;;;;;0.90;0.50;;;;;;;12.24;100.00;100355.79;104703;1262;60532;-48
2023/09/09 01:32:35;;;;;;;2.10;0.60;;;;;;;12.21;100.00;100349.84;105022;1257;60630;-50
2023/09/09 01:35:04;;;;;;;3.30;0.60;;;;;;;12.18;100.00;100351.56;105042;1256;74376;-51
2023/09/09 01:37:32;;;;;;;0.80;0.50;;;;;;;12.15;100.00;100351.71;104980;1261;66826;-51
2023/09/09 01:40:10;;;;;;;0.90;0.60;;;;;;;12.13;100.00;100354.67;105291;1260;72679;-52
2023/09/09 01:42:38;;;;;;;0.90;0.50;;;;;;;12.09;100.00;100355.75;104594;1260;60719;-49
2023/09/09 01:45:07;;;;;;;0.80;0.70;;;;;;;12.03;100.00;100356.55;104791;1256;60548;-51
2023/09/09 01:47:34;;;;;;;1.90;0.60;;;;;;;11.96;100.00;100361.39;104742;1261;73835;-51
2023/09/09 01:50:03;;;;;;;1.00;0.60;;;;;;;11.86;100.00;100358.96;104599;1259;66852;-49
2023/09/09 01:52:30;;;;;;;0.80;0.50;;;;;;;11.77;100.00;100357.00;104925;1256;72637;-50
2023/09/09 01:54:58;;;;;;;3.70;0.50;;;;;;;11.73;100.00;100357.16;105717;1256;60851;-53
2023/09/09 01:57:26;;;;;;;1.40;0.60;;;;;;;11.72;100.00;100358.63;104674;1258;60388;-53
2023/09/09 01:59:54;;;;;;;3.20;0.60;;;;;;;11.72;100.00;100353.23;105348;1257;72559;-53
2023/09/09 02:02:22;;;;;;;0.90;0.60;;;;;;;11.71;100.00;100355.96;104452;1258;65181;-51
2023/09/09 02:04:50;;;;;;;1.50;0.70;;;;;;;11.70;100.00;100358.17;105070;1258;71782;-53
2023/09/09 02:07:17;;;;;;;0.80;0.50;;;;;;;11.69;100.00;100360.55;105286;1256;60571;-52
2023/09/09 02:09:45;;;;;;;0.80;0.50;;;;;;;11.66;100.00;100360.31;104426;1257;60509;-54
2023/09/09 02:12:13;;;;;;;1.00;0.50;;;;;;;11.63;100.00;100357.77;104569;1257;72625;-51
2023/09/09 02:14:40;;;;;;;1.30;0.50;;;;;;;11.58;100.00;100355.65;104666;1256;69443;-53
2023/09/09 02:17:08;;;;;;;0.90;0.60;;;;;;;11.55;100.00;100357.04;104642;1261;72648;-54
2023/09/09 02:19:35;;;;;;;2.10;0.50;;;;;;;11.52;100.00;100356.61;104622;1261;60544;-52
2023/09/09 02:22:04;;;;;;;0.70;0.50;;;;;;;11.48;100.00;100359.30;104391;1256;62012;-54
2023/09/09 02:24:31;;;;;;;1.40;0.60;;;;;;;11.46;100.00;100365.70;104511;1256;72853;-54
2023/09/09 02:26:59;;;;;;;0.70;0.50;;;;;;;11.45;100.00;100368.80;104471;1264;65492;-53
2023/09/09 02:29:27;;;;;;;1.90;0.50;;;;;;;11.45;100.00;100364.64;108539;1257;73757;-50
2023/09/09 02:31:54;;;;;;;4.10;0.60;;;;;;;11.45;100.00;100368.08;108614;1256;60768;-50
2023/09/09 02:34:22;;;;;;;1.30;0.50;;;;;;;11.45;100.00;100367.89;108620;1256;58749;-52
2023/09/09 02:37:18;;;;;;;2.40;0.50;;;;;;;11.47;100.00;100379.13;108742;1256;73817;-51
2023/09/09 02:39:50;;;;;;;1.30;0.70;;;;;;;11.48;100.00;100379.63;108739;1262;67879;-50
2023/09/09 02:42:22;;;;;;;3.10;0.80;;;;;;;11.48;100.00;100375.49;108666;1256;74857;-52
2023/09/09 02:44:49;;;;;;;2.40;0.60;;;;;;;11.49;100.00;100382.05;108794;1256;61047;-50
2023/09/09 02:47:17;;;;;;;4.00;0.60;;;;;;;11.49;100.00;100384.05;108720;1256;60039;-52
2023/09/09 02:49:45;;;;;;;1.20;0.60;;;;;;;11.48;100.00;100386.25;108755;1256;73825;-51
2023/09/09 02:52:13;;;;;;;1.60;0.70;;;;;;;11.47;100.00;100386.86;108733;1256;66414;-52
2023/09/09 02:54:41;;;;;;;1.40;0.70;;;;;;;11.44;100.00;100383.72;108784;1256;72720;-52
2023/09/09 02:57:08;;;;;;;0.70;0.50;;;;;;;11.42;100.00;100385.61;107248;1257;63383;-51
2023/09/09 02:59:36;;;;;;;1.30;0.60;;;;;;;11.38;100.00;100385.06;104769;1257;60546;-51
2023/09/09 03:02:05;;;;;;;4.80;0.70;;;;;;;11.36;100.00;100389.98;105218;1262;72618;-52
2023/09/09 03:04:33;;;;;;;2.50;0.70;;;;;;;11.35;100.00;100391.31;104547;1262;66739;-52
2023/09/09 03:07:00;;;;;;;2.50;0.70;;;;;;;11.33;100.00;100390.47;107495;1259;70942;-52
2023/09/09 03:09:29;;;;;;;1.20;0.50;;;;;;;11.31;100.00;100387.28;104748;1259;60537;-51
2023/09/09 03:11:57;;;;;;;2.80;0.70;;;;;;;11.31;100.00;100387.33;104610;1256;60566;-52
2023/09/09 03:14:25;;;;;;;2.10;0.60;;;;;;;11.31;100.00;100390.73;104936;1262;73854;-52
2023/09/09 03:16:52;;;;;;;1.30;0.70;;;;;;;11.26;100.00;100392.91;104650;1256;69415;-52
2023/09/09 03:19:20;;;;;;;1.40;0.70;;;;;;;11.20;100.00;100394.96;104670;1262;72708;-53
2023/09/09 03:21:47;;;;;;;1.80;0.70;;;;;;;11.12;100.00;100394.94;104667;1259;60435;-51
2023/09/09 03:24:15;;;;;;;1.10;0.60;;;;;;;11.06;100.00;100399.69;104557;1256;61037;-51
2023/09/09 03:26:42;;;;;;;1.30;0.70;;;;;;;10.99;100.00;100402.27;104623;1262;71620;-52
2023/09/09 03:29:09;;;;;;;0.90;0.70;;;;;;;10.94;100.00;100403.90;104582;1262;65696;-51
2023/09/09 03:31:37;;;;;;;1.20;0.60;;;;;;;10.92;100.00;100405.95;104457;1256;71373;-52
2023/09/09 03:34:04;;;;;;;1.20;0.50;;;;;;;10.90;100.00;100406.94;104639;1256;61686;-52
2023/09/09 03:36:35;;;;;;;2.00;0.50;;;;;;;10.88;100.00;100409.16;104422;1256;60484;-53
2023/09/09 03:39:03;;;;;;;2.60;0.80;;;;;;;10.88;100.00;100411.53;104762;1256;73776;-53
2023/09/09 03:41:31;;;;;;;1.00;0.60;;;;;;;10.89;100.00;100413.09;104396;1256;66746;-53
2023/09/09 03:43:58;;;;;;;3.80;0.50;;;;;;;10.91;100.00;100406.54;104587;1261;72729;-53
2023/09/09 03:46:26;;;;;;;1.70;0.80;;;;;;;10.95;100.00;100410.91;104576;1258;61532;-53
2023/09/09 03:48:55;;;;;;;1.40;0.60;;;;;;;10.98;100.00;100412.91;108682;1258;58813;-53
2023/09/09 03:51:23;;;;;;;3.70;0.60;;;;;;;11.01;100.00;100412.62;107967;1257;73843;-53
2023/09/09 03:53:50;;;;;;;1.70;0.60;;;;;;;11.03;100.00;100414.15;104482;1256;65637;-51
2023/09/09 03:56:19;;;;;;;2.80;0.80;;;;;;;11.06;100.00;100416.76;104819;1256;70147;-51
2023/09/09 03:58:47;;;;;;;1.20;0.60;;;;;;;11.09;100.00;100420.76;104404;1259;60475;-52
2023/09/09 04:01:14;;;;;;;2.00;0.60;;;;;;;11.11;100.00;100422.84;104478;1256;60582;-52
2023/09/09 04:03:42;;;;;;;1.40;0.60;;;;;;;11.13;100.00;100425.45;104753;1258;71756;-51
2023/09/09 04:06:12;;;;;;;1.30;0.50;;;;;;;11.15;100.00;100424.27;104538;1265;66774;-52
2023/09/09 04:08:40;;;;;;;1.80;0.80;;;;;;;11.19;100.00;100421.61;104995;1261;71871;-52
2023/09/09 04:11:08;;;;;;;1.00;0.60;;;;;;;11.22;100.00;100423.08;105477;1258;60568;-53
2023/09/09 04:13:37;;;;;;;1.80;0.60;;;;;;;11.26;100.00;100433.71;108674;1256;58524;-52
2023/09/09 04:16:06;;;;;;;4.00;0.50;;;;;;;11.28;100.00;100431.29;104818;1261;74866;-51
2023/09/09 04:18:34;;;;;;;2.30;0.50;;;;;;;11.32;100.00;100427.16;104857;1259;65717;-52
2023/09/09 04:21:14;;;;;;;2.50;0.60;;;;;;;11.40;100.00;100429.75;105852;1259;72596;-53
2023/09/09 04:23:42;;;;;;;1.80;0.60;;;;;;;11.47;100.00;100428.91;104243;1259;62262;-53
2023/09/09 04:26:10;;;;;;;0.90;0.60;;;;;;;11.55;100.00;100427.84;105005;1256;60466;-52
2023/09/09 04:28:38;;;;;;;1.60;0.70;;;;;;;11.64;100.00;100432.86;104556;1259;73855;-53
2023/09/09 04:31:05;;;;;;;0.70;0.60;;;;;;;11.73;100.00;100433.21;104658;1263;66844;-53
2023/09/09 04:33:35;;;;;;;2.70;0.50;;;;;;;11.86;100.00;100432.48;104847;1262;72496;-50
2023/09/09 04:36:03;;;;;;;5.70;0.90;;;;;;;12.08;100.00;100437.64;104857;1259;60442;-52
2023/09/09 04:38:31;;;;;;;1.70;0.50;;;;;;;12.40;100.00;100434.23;105104;1263;60468;-53
2023/09/09 04:40:58;;;;;;;2.20;0.80;;;;;;;12.76;100.00;100434.92;104670;1261;74874;-52
2023/09/09 04:43:26;;;;;;;3.70;0.80;;;;;;;13.11;100.00;100431.68;104345;1256;66965;-51
2023/09/09 04:45:54;;;;;;;1.20;0.70;;;;;;;13.42;100.00;100429.08;104558;1256;71449;-53
2023/09/09 04:48:22;;;;;;;1.00;0.70;;;;;;;13.63;100.00;100423.88;104444;1257;60748;-52
2023/09/09 04:50:50;;;;;;;2.60;0.70;;;;;;;13.78;100.00;100429.47;104436;1256;60039;-53
2023/09/09 04:53:18;;;;;;;3.50;0.60;;;;;;;13.86;100.00;100427.91;104884;1258;71872;-51
2023/09/09 04:55:46;;;;;;;2.80;0.70;;;;;;;13.93;100.00;100428.50;104466;1256;66728;-51
2023/09/09 04:58:14;;;;;;;3.70;0.60;;;;;;;13.97;100.00;100429.14;105362;1261;72626;-53
2023/09/09 05:00:41;;;;;;;3.10;0.70;;;;;;;14.01;100.00;100434.73;104554;1260;61106;-52
2023/09/09 05:03:08;;;;;;;1.20;0.60;;;;;;;14.06;100.00;100435.75;104542;1259;60441;-54
2023/09/09 05:05:36;;;;;;;1.60;0.70;;;;;;;14.13;100.00;100435.91;108652;1256;73830;-54
2023/09/09 05:08:04;;;;;;;5.20;0.70;;;;;;;14.21;100.00;100434.41;108682;1256;66752;-51
2023/09/09 05:10:34;;;;;;;2.20;0.80;;;;;;;14.27;100.00;100433.92;105362;1256;72645;-53
2023/09/09 05:13:03;;;;;;;2.90;0.70;;;;;;;14.31;100.00;100436.20;108667;1257;60262;-53
2023/09/09 05:15:31;;;;;;;6.20;0.80;;;;;;;14.32;100.00;100441.40;108752;1256;60053;-54
2023/09/09 05:17:59;;;;;;;1.40;0.60;;;;;;;14.32;100.00;100442.48;107078;1263;72653;-53
2023/09/09 05:20:27;;;;;;;3.60;0.70;;;;;;;14.34;100.00;100443.09;104617;1256;66795;-53
2023/09/09 05:22:55;;;;;;;2.30;0.70;;;;;;;14.41;100.00;100440.96;108729;1259;71702;-54
2023/09/09 05:25:23;;;;;;;1.60;0.80;;;;;;;14.50;100.00;100449.73;108777;1256;60511;-54
2023/09/09 05:27:50;;;;;;;1.60;0.80;;;;;;;14.58;100.00;100451.98;108739;1256;60681;-54
2023/09/09 05:30:17;;;;;;;1.10;0.70;;;;;;;14.68;100.00;100455.77;108164;1259;73846;-53
2023/09/09 05:32:45;;;;;;;7.70;0.80;;;;;;;14.78;100.00;100455.37;104468;1262;67794;-53
2023/09/09 05:35:12;;;;;;;7.00;0.80;;;;;;;14.90;100.00;100456.03;104479;1256;72437;-53
2023/09/09 05:37:41;;;;;;;7.30;0.90;;;;;;;15.02;100.00;100457.86;104626;1259;60446;-53
2023/09/09 05:40:09;;;;;;;7.10;0.90;;;;;;;15.13;100.00;100456.88;108710;1261;60113;-53
2023/09/09 05:42:37;;;;;;;3.50;1.00;;;;;;;15.23;100.00;100460.87;108612;1256;73563;-54
2023/09/09 05:45:05;;;;;;;5.10;0.80;;;;;;;15.32;100.00;100456.58;108654;1256;66865;-52
2023/09/09 05:47:33;;;;;;;3.60;0.70;;;;;;;15.39;100.00;100456.50;108795;1258;71328;-53
2023/09/09 05:50:01;;;;;;;4.90;1.00;;;;;;;15.47;100.00;100455.85;107301;1257;60611;-51
2023/09/09 05:52:29;;;;;;;5.70;1.30;;;;;;;15.55;100.00;100458.88;104677;1262;60406;-53
2023/09/09 05:54:56;;;;;;;3.30;0.70;;;;;;;15.62;100.00;100460.61;105316;1256;74391;-53
2023/09/09 05:57:24;;;;;;;1.90;0.60;;;;;;;15.70;100.00;100458.35;105441;1259;66930;-53
2023/09/09 05:59:52;;;;;;;1.00;0.50;;;;;;;15.79;100.00;100460.02;104375;1256;72664;-52
2023/09/09 06:02:19;;;;;;;0.80;0.40;;;;;;;15.87;100.00;100460.44;104357;1259;60592;-53
2023/09/09 06:04:47;;;;;;;1.20;0.80;;;;;;;15.96;100.00;100463.91;104586;1256;60724;-52
2023/09/09 06:07:14;;;;;;;4.00;0.50;;;;;;;16.05;100.00;100470.42;104516;1259;72698;-53
2023/09/09 06:09:42;;;;;;;1.90;0.50;;;;;;;16.13;100.00;100472.85;104836;1259;67209;-53
2023/09/09 06:12:09;;;;;;;2.80;0.30;;;;;;;16.20;100.00;100471.69;104331;1264;73180;-52
2023/09/09 06:14:37;;;;;;;2.00;0.40;;;;;;;16.28;100.00;100475.18;104413;1260;61238;-52
2023/09/09 06:17:04;;;;;;;1.50;0.30;;;;;;;16.36;100.00;100480.69;104323;1259;61178;-52
2023/09/09 06:19:31;;;;;;;4.00;0.40;;;;;;;16.41;100.00;100485.40;104423;1256;72630;-53
2023/09/09 06:21:59;;;;;;;3.10;0.40;;;;;;;16.48;100.00;100483.20;104179;1259;68611;-52
2023/09/09 06:24:27;;;;;;;1.70;0.40;;;;;;;16.54;100.00;100483.52;104449;1262;74009;-53
2023/09/09 06:26:55;;;;;;;3.80;0.40;;;;;;;16.60;100.00;100486.95;104298;1261;60532;-53
2023/09/09 06:29:23;;;;;;;0.70;0.30;;;;;;;16.67;100.00;100490.38;104408;1256;60589;-52
2023/09/09 06:31:51;;;;;;;1.20;0.20;;;;;;;16.72;100.00;100490.43;104490;1257;74093;-53
2023/09/09 06:34:19;;;;;;;3.20;0.30;;;;;;;16.77;100.00;100489.19;104240;1256;66755;-51
2023/09/09 06:36:46;;;;;;;0.70;0.30;;;;;;;16.83;100.00;100490.85;104426;1262;72441;-52
2023/09/09 06:39:13;;;;;;;2.10;0.40;;;;;;;16.87;100.00;100492.02;104402;1260;60547;-51
2023/09/09 06:41:41;;;;;;;3.70;0.40;;;;;;;16.91;100.00;100498.13;104534;1261;60567;-52
2023/09/09 06:44:08;;;;;;;1.70;0.40;;;;;;;16.95;100.00;100500.19;104476;1259;72621;-52
2023/09/09 06:46:36;;;;;;;1.80;0.40;;;;;;;17.02;100.00;100506.46;104517;1256;67293;-53
2023/09/09 06:49:03;;;;;;;0.90;0.40;;;;;;;17.09;100.00;100505.14;105220;1261;74288;-51
2023/09/09 06:51:30;;;;;;;1.20;0.30;;;;;;;17.15;100.00;100503.89;104627;1256;59547;-52
2023/09/09 06:53:58;;;;;;;3.20;0.60;;;;;;;17.21;100.00;100509.99;104550;1261;61935;-51
2023/09/09 06:56:25;;;;;;;4.60;0.40;;;;;;;17.27;100.00;100513.42;104457;1262;73874;-52
2023/09/09 06:58:52;;;;;;;2.50;0.40;;;;;;;17.35;100.00;100518.13;104514;1262;65520;-53
2023/09/09 07:01:20;;;;;;;1.40;0.40;;;;;;;17.43;100.00;100519.82;104391;1258;72748;-51
2023/09/09 07:03:47;;;;;;;1.00;0.40;;;;;;;17.49;100.00;100523.64;104424;1265;61039;-51
2023/09/09 07:06:15;;;;;;;0.70;0.30;;;;;;;17.54;100.00;100523.83;104618;1260;61526;-54
2023/09/09 07:08:43;;;;;;;0.80;0.50;;;;;;;17.61;100.00;100526.30;104456;1256;73806;-53
2023/09/09 07:11:11;;;;;;;2.00;0.50;;;;;;;17.68;100.00;100524.17;104622;1256;65625;-53
2023/09/09 07:13:38;;;;;;;2.50;0.70;;;;;;;17.73;100.00;100525.48;104467;1258;71409;-52
2023/09/09 07:16:06;;;;;;;0.60;0.40;;;;;;;17.78;100.00;100526.81;104382;1261;60627;-53
2023/09/09 07:18:33;;;;;;;0.80;0.40;;;;;;;17.83;100.00;100527.20;104328;1256;61130;-53
2023/09/09 07:21:01;;;;;;;1.30;0.40;;;;;;;17.86;100.00;100526.85;108660;1257;73785;-54
2023/09/09 07:23:28;;;;;;;0.50;0.30;;;;;;;17.89;100.00;100533.53;108158;1262;66111;-52
2023/09/09 07:25:55;;;;;;;2.90;0.40;;;;;;;17.94;100.00;100539.92;104503;1260;71461;-55
2023/09/09 07:28:23;;;;;;;1.10;0.30;;;;;;;18.00;100.00;100539.11;104457;1256;60436;-53
2023/09/09 07:30:51;;;;;;;0.50;0.30;;;;;;;18.09;100.00;100550.86;104597;1262;60476;-53
2023/09/09 07:33:20;;;;;;;2.40;0.40;;;;;;;18.17;100.00;100553.27;104525;1265;74709;-52
2023/09/09 07:35:47;;;;;;;1.00;0.30;;;;;;;18.24;100.00;100551.71;104621;1263;66933;-52
2023/09/09 07:38:15;;;;;;;2.40;0.30;;;;;;;18.30;100.00;100554.96;104535;1260;73160;-51
2023/09/09 07:40:43;;;;;;;3.40;0.40;;;;;;;18.34;100.00;100554.09;104525;1262;61052;-53
2023/09/09 07:43:10;;;;;;;4.00;0.30;;;;;;;18.38;100.00;100560.58;104646;1262;60547;-51
2023/09/09 07:45:38;;;;;;;1.90;0.30;;;;;;;18.43;100.00;100561.31;104669;1256;73782;-51
2023/09/09 07:48:05;;;;;;;0.90;0.40;;;;;;;18.49;100.00;100566.86;104395;1257;66793;-53
2023/09/09 07:50:33;;;;;;;4.30;0.40;;;;;;;18.53;100.00;100569.73;105062;1260;72779;-51
2023/09/09 07:53:01;;;;;;;1.50;0.40;;;;;;;18.53;100.00;100571.17;104461;1259;60562;-52
2023/09/09 07:55:28;;;;;;;1.50;0.50;;;;;;;18.55;100.00;100570.65;104641;1259;60518;-54
2023/09/09 07:57:58;;;;;;;1.60;0.70;;;;;;;18.55;100.00;100572.63;104641;1262;72659;-54
2023/09/09 08:00:26;;;;;;;2.00;0.60;;;;;;;18.50;100.00;100575.90;104680;1262;65676;-52
2023/09/09 08:02:53;;;;;;;5.60;0.60;;;;;;;18.48;100.00;100576.79;108675;1256;73609;-51
2023/09/09 08:05:21;;;;;;;3.30;0.30;;;;;;;18.50;100.00;100572.64;105413;1262;60500;-53
2023/09/09 08:07:48;;;;;;;2.00;0.50;;;;;;;18.54;100.00;100576.13;104523;1256;60483;-54
2023/09/09 08:10:16;;;;;;;1.30;0.30;;;;;;;18.58;100.00;100575.75;104582;1263;72760;-53
2023/09/09 08:12:44;;;;;;;1.00;0.40;;;;;;;18.58;100.00;100581.94;104694;1262;66878;-53
2023/09/09 08:15:11;;;;;;;0.80;0.40;;;;;;;18.59;100.00;100581.51;108666;1258;72728;-53
2023/09/09 08:17:44;;;;;;;1.10;0.50;;;;;;;18.59;100.00;100585.67;108808;1256;58741;-54
2023/09/09 08:20:12;;;;;;;3.60;0.40;;;;;;;18.65;100.00;100577.27;108545;1257;167704;-53
2023/09/09 08:23:25;;;;;;;2.60;0.30;;;;;;;18.72;100.00;100597.54;101902;1292;600655;-52
2023/09/09 08:25:53;;;;;;;2.30;0.30;;;;;;;18.81;100.00;100590.16;103973;1264;60140;-52
2023/09/09 08:28:20;;;;;;;1.00;0.40;;;;;;;18.90;100.00;100590.27;103898;1264;60557;-52
2023/09/09 08:30:47;;;;;;;1.80;0.40;;;;;;;18.88;100.00;100590.21;104122;1268;71030;-51
2023/09/09 08:33:15;;;;;;;1.40;0.30;;;;;;;18.85;100.00;100597.16;104082;1264;65658;-52
2023/09/09 08:35:43;;;;;;;2.40;0.40;;;;;;;18.83;100.00;100593.65;103951;1270;72664;-51
2023/09/09 08:38:10;;;;;;;2.80;0.30;;;;;;;18.78;100.00;100594.93;104056;1263;147193;-53
2023/09/09 08:40:53;;;;;;;1.00;0.30;;;;;;;18.78;100.00;100594.73;104225;1267;59984;-51
2023/09/09 08:43:39;;;;;;;1.00;0.40;;;;;;;18.85;100.00;100593.51;108311;1262;71916;-53
2023/09/09 08:46:14;;;;;;;1.80;0.30;;;;;;;18.93;100.00;100596.25;105337;1265;66883;-52
2023/09/09 08:48:42;;;;;;;2.70;0.30;;;;;;;18.99;100.00;100597.44;105269;1266;73289;-51
2023/09/09 08:51:16;;;;;;;8.00;0.30;;;;;;;19.09;100.00;100593.25;104383;1264;59759;-50
2023/09/09 08:53:43;;;;;;;2.40;0.30;;;;;;;19.21;100.00;100593.90;105429;1265;59700;-52
2023/09/09 08:56:14;;;;;;;2.10;0.30;;;;;;;19.31;100.00;100598.81;106322;1260;73061;-53
2023/09/09 08:58:41;;;;;;;0.80;0.20;;;;;;;19.35;100.00;100603.30;104570;1260;66891;-51
2023/09/09 09:01:09;;;;;;;0.30;0.20;;;;;;;19.28;100.00;100603.98;104543;1260;73207;-51
2023/09/09 09:03:36;;;;;;;3.10;0.30;;;;;;;19.15;100.00;100606.30;104496;1265;60525;-51
2023/09/09 09:06:05;;;;;;;3.00;0.30;;;;;;;19.05;100.00;100614.30;104715;1260;59748;-53
2023/09/09 09:08:33;;;;;;;1.20;0.20;;;;;;;18.95;100.00;100609.93;105365;1265;72320;-51
2023/09/09 09:11:02;;;;;;;0.40;0.20;;;;;;;18.84;100.00;100617.74;104467;1266;66917;-50
2023/09/09 09:13:31;;;;;;;0.50;0.20;;;;;;;18.79;100.00;100623.23;104776;1260;72328;-53
2023/09/09 09:15:59;;;;;;;1.70;0.30;;;;;;;18.72;100.00;100621.86;104671;1259;60131;-51
2023/09/09 09:18:27;;;;;;;0.50;0.30;;;;;;;18.68;100.00;100627.80;105874;1265;59531;-52
2023/09/09 09:21:10;;;;;;;0.30;0.20;;;;;;;18.66;100.00;100631.21;104734;1261;73037;-50
2023/09/09 09:23:45;;;;;;;0.40;0.20;;;;;;;18.66;100.00;100627.59;104516;1265;66733;-51
2023/09/09 09:26:29;;;;;;;;;;;;;;;18.71;100.00;100626.51;105042;1260;73147;-51
2023/09/09 09:28:57;;;;;;;0.80;0.40;;;;;;;18.78;100.00;100617.66;106116;1260;60550;-51
2023/09/09 09:31:27;;;;;;;1.20;0.20;;;;;;;18.89;100.00;100621.95;104894;1260;59757;-51
2023/09/09 09:33:56;;;;;;;1.00;0.20;;;;;;;19.00;100.00;100621.73;104537;1263;73535;-53
2023/09/09 09:36:25;;;;;;;3.10;0.30;;;;;;;19.11;100.00;100625.35;104713;1260;65696;-51
2023/09/09 09:38:53;;;;;;;0.50;0.20;;;;;;;19.19;100.00;100621.88;104929;1256;72670;-51
2023/09/09 09:41:21;;;;;;;1.20;0.30;;;;;;;19.21;100.00;100621.90;105005;1257;59688;-51
2023/09/09 09:43:49;;;;;;;0.50;0.30;;;;;;;19.24;100.00;100615.70;104999;1257;60463;-51
2023/09/09 09:46:20;;;;;;;1.10;0.40;;;;;;;19.28;100.00;100611.96;104710;1262;71759;-52
2023/09/09 09:48:48;;;;;;;1.30;0.30;;;;;;;19.35;100.00;100619.13;107793;1256;65476;-51
2023/09/09 09:51:16;;;;;;;0.40;0.20;;;;;;;19.43;100.00;100623.61;105051;1257;72536;-47
2023/09/09 09:53:51;;;;;;;0.40;0.20;;;;;;;19.48;100.00;100619.98;104965;1257;59724;-52
2023/09/09 09:56:19;;;;;;;1.60;0.20;;;;;;;19.51;100.00;100626.89;105596;1257;60039;-52
2023/09/09 09:58:48;;;;;;;0.50;0.20;;;;;;;19.54;100.00;100629.23;105316;1256;73024;-51
2023/09/09 10:01:15;;;;;;;0.30;0.30;;;;;;;19.55;100.00;100627.17;105042;1254;66776;-51
2023/09/09 10:03:57;;;;;;;0.40;0.30;;;;;;;19.56;100.00;100627.98;104902;1257;71390;-51
2023/09/09 10:06:26;;;;;;;0.60;0.30;;;;;;;19.61;100.00;100624.54;105153;1255;60115;-53
2023/09/09 10:09:06;;;;;;;0.70;0.30;;;;;;;19.68;100.00;100623.84;105326;1254;59731;-50
2023/09/09 10:11:37;;;;;;;0.90;0.20;;;;;;;19.76;100.00;100625.10;104985;1257;72861;-52
2023/09/09 10:14:12;;;;;;;0.60;0.30;;;;;;;19.82;100.00;100626.09;104972;1260;65924;-51
2023/09/09 10:16:40;;;;;;;0.40;0.30;;;;;;;19.88;100.00;100626.41;105036;1257;72979;-53
2023/09/09 10:19:08;;;;;;;0.50;0.20;;;;;;;19.94;100.00;100632.66;105420;1256;59687;-51
2023/09/09 10:21:36;;;;;;;0.90;0.30;;;;;;;19.97;100.00;100634.66;105455;1261;59608;-52
2023/09/09 10:24:08;;;;;;;2.20;0.30;;;;;;;20.02;100.00;100630.06;104880;1255;74022;-48
2023/09/09 10:26:37;;;;;;;0.40;0.30;;;;;;;20.10;100.00;100627.33;104983;1257;70753;-51
2023/09/09 10:29:04;;;;;;;1.70;0.40;;;;;;;20.18;100.00;100628.73;104917;1259;70754;-50
2023/09/09 10:31:32;;;;;;;3.60;0.30;;;;;;;20.27;100.00;100631.16;104840;1257;60056;-51
2023/09/09 10:33:59;;;;;;;0.90;0.20;;;;;;;20.33;100.00;100631.61;104855;1256;60869;-51
2023/09/09 10:36:27;;;;;;;0.70;0.20;;;;;;;20.36;100.00;100627.57;104747;1262;73051;-51
2023/09/09 10:38:55;;;;;;;0.60;0.20;;;;;;;20.30;100.00;100636.73;105001;1257;67604;-52
2023/09/09 10:41:23;;;;;;;0.20;0.20;;;;;;;20.23;100.00;100633.84;104927;1256;72438;-52
2023/09/09 10:43:50;;;;;;;0.40;0.20;;;;;;;20.17;100.00;100636.27;104961;1260;60930;-52
2023/09/09 10:46:37;;;;;;;2.90;0.40;;;;;;;20.15;100.00;100642.45;104943;1262;59560;-51
2023/09/09 10:49:04;;;;;;;1.00;0.30;;;;;;;20.15;100.00;100642.79;104916;1255;73886;-53
2023/09/09 10:51:48;;;;;;;0.30;0.20;;;;;;;20.17;100.00;100638.48;104870;1256;66920;-50
2023/09/09 10:54:20;;;;;;;0.40;0.30;;;;;;;20.16;100.00;100641.61;105493;1261;73013;-52
2023/09/09 10:56:49;;;;;;;0.50;0.30;;;;;;;20.18;100.00;100641.65;108796;1259;60074;-51
2023/09/09 10:59:24;;;;;;;0.70;0.20;;;;;;;20.24;100.00;100638.46;105150;1257;60013;-51
2023/09/09 11:02:13;;;;;;;1.30;0.40;;;;;;;20.29;100.00;100639.89;105363;1259;71195;-52
2023/09/09 11:04:41;;;;;;;1.20;0.30;;;;;;;20.33;100.00;100639.05;104847;1262;66892;-52
2023/09/09 11:07:13;;;;;;;2.50;0.30;;;;;;;20.39;100.00;100643.73;104825;1257;71856;-51
2023/09/09 11:09:51;;;;;;;0.40;0.20;;;;;;;20.46;100.00;100644.73;105204;1259;60229;-51
2023/09/09 11:12:25;;;;;;;0.80;0.30;;;;;;;20.48;100.00;100647.98;104792;1257;60288;-52
2023/09/09 11:14:58;;;;;;;2.20;0.30;;;;;;;20.47;100.00;100655.91;106169;1256;73592;-51
2023/09/09 11:17:28;;;;;;;0.30;0.20;;;;;;;20.42;100.00;100648.48;108780;1255;66089;-52